Accueil
METAR-TAF:

METAR-TAF

Aéroports :

Beauvechain, Belgique

Base aérienne de Beauvechain

latitude: 50-45N, longitude: 004-46E, altitude: 105 m

Observation

Le bulletin a été fait il y a 36 minutes, à 03:25 UTC
Vent 7 kt de nord-est
Température 5°C
Humidité 81%
Pression 1029 hPa
Visibilité 10 km ou plus

METAR: EBBE 250325Z AUTO 05007KT 9999 NCD 05/02 Q1029 BLU

Heure: 05:01 (04:01 UTC)

Prévision

Le bulletin a été fait il y a 19 heures et 20 minutes, à 08:41 UTC
Prévision valable du 24 à 10 UTC au 24 à 19 UTC
Vent 12 kt de est/nord-est
Visibilité: 6000 m
Nuages épars à une hauteur de 22000 ft
Evoluant progressivement
du 22 à 10 UTC au 22 à 12 UTC
Visibilité 10 km ou plus
Quelques nuages à une hauteur de 1500 ft
Nuages épars à une hauteur de 22000 ft

TAF: EBBE 240841Z 2410/2419 06012KT 6000 SCT220 BECMG 2210/2212 9999 NSW FEW015 SCT220

Observations et prévisions météorologiques de plus de 4000 aéroports (messages METAR et TAF).

Les stations disponibles sont représentées par des disques jaunes et rouges sur la carte.

Passer la souris dessus pour voir le nom de la station.

Cliquer dessus pour voir les observations et prévisions météorologiques.

Pour changer de carte: cliquez sur les boutons verts avec une croix noire pour zoomer, sur le bouton vert avec un tiret pour effectuer un zoom arrière, ou sur les flèches vertes pour les cartes adjacentes.


METAR-TAF: